Time;durP1;ratioP1;P1;durP2;ratioP2;P2;SDS_P1;SDS_P2;PMS_P1;PMS_P2;Temp;Humidity;BMP_temperature;BMP_pressure;BME280_temperature;BME280_humidity;BME280_pressure;Samples;Min_cycle;Max_cycle;Signal;HPM_P1;HPM_P2
2024/01/03 00:00:34;;;;;;;1.05;0.75;;;;;;;;;;4928890;29;20064;-87
2024/01/03 00:02:59;;;;;;;2.47;0.95;;;;;;;;;;4929843;29;20567;-87
2024/01/03 00:05:33;;;;;;;2.08;1.00;;;;;;;;;;4928583;29;20039;-87
2024/01/03 00:07:59;;;;;;;1.10;0.90;;;;;;;;;;4933962;29;20470;-87
2024/01/03 00:10:36;;;;;;;1.50;1.00;;;;;;;;;;4928125;29;20027;-87
2024/01/03 00:13:04;;;;;;;1.25;0.80;;;;;;;;;;4928496;29;20490;-87
2024/01/03 00:15:33;;;;;;;1.88;0.95;;;;;;;;;;4928847;29;20036;-87
2024/01/03 00:17:59;;;;;;;2.38;1.10;;;;;;;;;;4929749;29;20042;-87
2024/01/03 00:20:24;;;;;;;2.85;1.02;;;;;;;;;;4934417;29;20040;-87
2024/01/03 00:22:50;;;;;;;1.50;0.77;;;;;;;;;;4928136;29;20047;-87
2024/01/03 00:25:15;;;;;;;1.92;1.00;;;;;;;;;;4931773;29;20040;-86
2024/01/03 00:27:41;;;;;;;1.23;0.82;;;;;;;;;;4927501;29;20044;-86
2024/01/03 00:30:07;;;;;;;1.52;1.00;;;;;;;;;;4925280;29;20040;-86
2024/01/03 00:32:33;;;;;;;1.55;1.00;;;;;;;;;;4925376;29;20028;-87
2024/01/03 00:34:59;;;;;;;1.60;1.02;;;;;;;;;;4928286;29;20065;-87
2024/01/03 00:37:29;;;;;;;1.58;1.08;;;;;;;;;;4922089;29;20039;-86
2024/01/03 00:39:56;;;;;;;1.42;1.00;;;;;;;;;;4923929;29;20032;-87
2024/01/03 00:42:22;;;;;;;1.45;0.95;;;;;;;;;;4925995;29;20055;-87
2024/01/03 00:44:48;;;;;;;1.92;0.90;;;;;;;;;;4924897;29;20040;-86
2024/01/03 00:47:14;;;;;;;3.13;0.85;;;;;;;;;;4924987;29;20034;-86
2024/01/03 00:49:40;;;;;;;1.05;0.77;;;;;;;;;;4940719;29;20039;-87
2024/01/03 00:52:07;;;;;;;1.20;0.75;;;;;;;;;;4926141;29;20032;-86
2024/01/03 00:54:34;;;;;;;1.92;0.80;;;;;;;;;;4926845;29;20167;-86
2024/01/03 00:57:00;;;;;;;1.25;0.77;;;;;;;;;;4929223;29;20071;-87
2024/01/03 00:59:26;;;;;;;2.35;1.10;;;;;;;;;;4932521;29;20048;-87
2024/01/03 01:01:54;;;;;;;1.25;0.80;;;;;;;;;;4927147;29;20039;-87
2024/01/03 01:04:20;;;;;;;2.60;1.00;;;;;;;;;;4932391;29;20046;-87
2024/01/03 01:06:46;;;;;;;1.73;1.10;;;;;;;;;;4925146;29;20120;-86
2024/01/03 01:09:11;;;;;;;1.80;1.00;;;;;;;;;;4929999;29;20032;-87
2024/01/03 01:11:37;;;;;;;1.35;0.90;;;;;;;;;;4930946;29;20123;-87
2024/01/03 01:14:02;;;;;;;1.95;1.00;;;;;;;;;;4928153;29;20047;-86
2024/01/03 01:16:28;;;;;;;2.67;1.00;;;;;;;;;;4924382;29;20091;-88
2024/01/03 01:18:53;;;;;;;1.20;0.80;;;;;;;;;;4932731;29;20044;-87
2024/01/03 01:21:19;;;;;;;1.10;0.82;;;;;;;;;;4934979;29;20043;-87
2024/01/03 01:23:44;;;;;;;1.00;0.90;;;;;;;;;;4941708;29;20044;-87
2024/01/03 01:26:10;;;;;;;2.83;0.90;;;;;;;;;;4922045;29;20102;-87
2024/01/03 01:28:36;;;;;;;3.13;1.10;;;;;;;;;;4928152;29;20751;-87
2024/01/03 01:31:02;;;;;;;1.95;0.90;;;;;;;;;;4928764;29;20036;-87
2024/01/03 01:33:27;;;;;;;2.42;1.00;;;;;;;;;;4939650;29;20032;-87
2024/01/03 01:35:54;;;;;;;1.67;0.82;;;;;;;;;;4927916;29;20043;-87
2024/01/03 01:38:20;;;;;;;1.38;0.90;;;;;;;;;;4936136;29;20032;-87
2024/01/03 01:40:48;;;;;;;1.88;1.00;;;;;;;;;;4939433;29;20039;-87
2024/01/03 01:43:14;;;;;;;0.95;0.73;;;;;;;;;;4938017;29;20044;-87
2024/01/03 01:45:40;;;;;;;0.82;0.70;;;;;;;;;;4935529;29;20059;-87
2024/01/03 01:48:07;;;;;;;1.48;0.68;;;;;;;;;;4932701;29;20032;-87
2024/01/03 01:50:36;;;;;;;1.05;0.70;;;;;;;;;;4935178;29;20032;-87
2024/01/03 01:53:01;;;;;;;0.82;0.60;;;;;;;;;;4936178;29;20039;-87
2024/01/03 01:55:27;;;;;;;1.35;0.70;;;;;;;;;;4934669;29;20040;-87
2024/01/03 01:57:53;;;;;;;0.73;0.60;;;;;;;;;;4931808;29;20033;-87
2024/01/03 02:00:19;;;;;;;1.73;0.60;;;;;;;;;;4937799;29;20063;-88
2024/01/03 02:02:46;;;;;;;1.50;0.70;;;;;;;;;;4934191;29;20489;-87
2024/01/03 02:05:13;;;;;;;1.25;0.70;;;;;;;;;;4931269;29;20056;-87
2024/01/03 02:07:39;;;;;;;1.40;0.70;;;;;;;;;;4931061;29;20127;-86
2024/01/03 02:10:05;;;;;;;0.70;0.70;;;;;;;;;;4932804;29;20039;-87
2024/01/03 02:12:31;;;;;;;0.85;0.60;;;;;;;;;;4936131;29;20035;-87
2024/01/03 02:14:57;;;;;;;2.33;0.77;;;;;;;;;;4920969;29;20103;-87
2024/01/03 02:17:22;;;;;;;0.68;0.60;;;;;;;;;;4930243;29;20040;-87
2024/01/03 02:19:48;;;;;;;0.52;0.50;;;;;;;;;;4949553;28;20051;-87
2024/01/03 02:22:15;;;;;;;0.77;0.60;;;;;;;;;;4930149;29;20043;-87
2024/01/03 02:24:43;;;;;;;0.57;0.50;;;;;;;;;;4933786;29;20409;-87
2024/01/03 02:27:08;;;;;;;0.73;0.52;;;;;;;;;;4936635;29;20131;-88
2024/01/03 02:29:33;;;;;;;0.80;0.65;;;;;;;;;;4932024;29;20046;-87
2024/01/03 02:31:59;;;;;;;0.57;0.50;;;;;;;;;;4932781;29;20036;-87
2024/01/03 02:34:26;;;;;;;0.82;0.50;;;;;;;;;;4932649;29;20447;-87
2024/01/03 02:36:52;;;;;;;0.88;0.50;;;;;;;;;;4933296;29;20047;-87
2024/01/03 02:39:18;;;;;;;0.85;0.73;;;;;;;;;;4939074;29;20036;-87
2024/01/03 02:41:43;;;;;;;0.40;0.40;;;;;;;;;;4931111;29;20043;-88
2024/01/03 02:44:10;;;;;;;1.48;0.50;;;;;;;;;;4933035;29;20574;-87
2024/01/03 02:46:35;;;;;;;2.20;0.50;;;;;;;;;;4939826;29;20043;-87
2024/01/03 02:49:01;;;;;;;0.50;0.30;;;;;;;;;;4932999;29;20465;-87
2024/01/03 02:51:26;;;;;;;0.50;0.50;;;;;;;;;;4934436;29;20028;-87
2024/01/03 02:53:52;;;;;;;0.70;0.40;;;;;;;;;;4945566;29;20553;-87
2024/01/03 02:56:17;;;;;;;1.23;0.40;;;;;;;;;;4935459;29;20036;-87
2024/01/03 02:58:43;;;;;;;1.55;0.50;;;;;;;;;;4932546;29;20403;-88
2024/01/03 03:01:08;;;;;;;0.57;0.40;;;;;;;;;;4932868;29;20434;-88
2024/01/03 03:03:34;;;;;;;0.50;0.50;;;;;;;;;;4934109;29;20028;-87
2024/01/03 03:06:01;;;;;;;0.40;0.40;;;;;;;;;;4938173;29;20572;-87
2024/01/03 03:08:27;;;;;;;0.50;0.40;;;;;;;;;;4938969;29;20063;-87
2024/01/03 03:10:52;;;;;;;0.77;0.50;;;;;;;;;;4930993;29;20035;-87
2024/01/03 03:13:18;;;;;;;0.60;0.50;;;;;;;;;;4932671;29;20062;-87
2024/01/03 03:15:44;;;;;;;0.50;0.50;;;;;;;;;;4936550;29;20473;-86
2024/01/03 03:18:10;;;;;;;1.67;0.50;;;;;;;;;;4934457;29;20036;-87
2024/01/03 03:20:35;;;;;;;0.77;0.50;;;;;;;;;;4933216;29;20035;-87
2024/01/03 03:23:01;;;;;;;0.60;0.60;;;;;;;;;;4929652;29;20059;-87
2024/01/03 03:25:26;;;;;;;0.38;0.35;;;;;;;;;;4934209;29;20039;-87
2024/01/03 03:27:52;;;;;;;0.35;0.35;;;;;;;;;;4937571;29;20051;-86
2024/01/03 03:30:17;;;;;;;0.90;0.43;;;;;;;;;;4934017;29;20036;-87
2024/01/03 03:32:45;;;;;;;0.63;0.50;;;;;;;;;;4932311;29;20110;-88
2024/01/03 03:35:13;;;;;;;0.73;0.52;;;;;;;;;;4934285;29;20042;-88
2024/01/03 03:37:40;;;;;;;0.47;0.45;;;;;;;;;;4935186;29;20024;-88
2024/01/03 03:40:07;;;;;;;0.95;0.60;;;;;;;;;;4938567;29;20525;-87
2024/01/03 03:42:33;;;;;;;0.85;0.55;;;;;;;;;;4932733;29;20127;-87
2024/01/03 03:44:59;;;;;;;2.90;0.55;;;;;;;;;;4934824;29;20063;-87
2024/01/03 03:47:24;;;;;;;0.60;0.50;;;;;;;;;;4937198;29;20172;-87
2024/01/03 03:49:50;;;;;;;2.72;0.50;;;;;;;;;;4933448;29;20063;-87
2024/01/03 03:52:15;;;;;;;1.13;0.70;;;;;;;;;;4933108;29;20040;-88
2024/01/03 03:54:41;;;;;;;0.68;0.60;;;;;;;;;;4950889;29;20027;-88
2024/01/03 03:57:06;;;;;;;1.45;0.60;;;;;;;;;;4936860;29;20024;-88
2024/01/03 03:59:32;;;;;;;0.93;0.68;;;;;;;;;;4932005;29;20088;-87
2024/01/03 04:01:57;;;;;;;0.80;0.68;;;;;;;;;;4935152;29;20045;-87
2024/01/03 04:04:38;;;;;;;1.50;0.70;;;;;;;;;;4632826;27;15126487;-87
2024/01/03 04:07:04;;;;;;;0.80;0.70;;;;;;;;;;5157185;27;20033;-88
2024/01/03 04:09:33;;;;;;;2.65;0.60;;;;;;;;;;5154868;27;20026;-87
2024/01/03 04:12:14;;;;;;;0.98;0.63;;;;;;;;;;5151722;27;20054;-88
2024/01/03 04:14:43;;;;;;;0.57;0.57;;;;;;;;;;5154409;27;20031;-87
2024/01/03 04:17:14;;;;;;;1.30;0.70;;;;;;;;;;5150322;27;20019;-86
2024/01/03 04:19:54;;;;;;;1.70;1.13;;;;;;;;;;5157007;27;20038;-87
2024/01/03 04:22:30;;;;;;;1.73;0.60;;;;;;;;;;5154367;27;20023;-87
2024/01/03 04:25:07;;;;;;;1.40;0.73;;;;;;;;;;5172690;27;20063;-86
2024/01/03 04:27:33;;;;;;;1.10;0.80;;;;;;;;;;5170449;27;20019;-86
2024/01/03 04:30:03;;;;;;;1.00;0.70;;;;;;;;;;5152899;27;20118;-87
2024/01/03 04:32:44;;;;;;;1.15;0.60;;;;;;;;;;5152786;27;20035;-86
2024/01/03 04:38:33;;;;;;;0.65;0.52;;;;;;;;;;5152731;27;20023;-85
2024/01/03 04:41:04;;;;;;;0.60;0.50;;;;;;;;;;5150583;27;20038;-87
2024/01/03 04:43:50;;;;;;;1.40;0.60;;;;;;;;;;5153559;27;20073;-85
2024/01/03 04:46:28;;;;;;;0.90;0.60;;;;;;;;;;5160023;27;20053;-86
2024/01/03 04:48:54;;;;;;;0.60;0.50;;;;;;;;;;5153645;27;20031;-87
2024/01/03 04:51:22;;;;;;;0.50;0.50;;;;;;;;;;5153496;27;20038;-87
2024/01/03 04:54:08;;;;;;;0.80;0.60;;;;;;;;;;5147457;27;20027;-87
2024/01/03 04:56:54;;;;;;;0.90;0.60;;;;;;;;;;5153379;27;20492;-86
2024/01/03 04:59:23;;;;;;;0.60;0.52;;;;;;;;;;5150985;27;20064;-86
2024/01/03 05:02:02;;;;;;;1.90;0.50;;;;;;;;;;5153031;27;20102;-86
2024/01/03 05:04:38;;;;;;;2.03;0.70;;;;;;;;;;5153270;27;20031;-87
2024/01/03 05:07:12;;;;;;;2.17;0.50;;;;;;;;;;5153441;27;20031;-87
2024/01/03 05:10:01;;;;;;;1.50;0.70;;;;;;;;;;5154477;27;20019;-87
2024/01/03 05:12:34;;;;;;;1.35;0.77;;;;;;;;;;5151447;27;20035;-86
2024/01/03 05:15:20;;;;;;;1.20;0.65;;;;;;;;;;5141930;27;20035;-86
2024/01/03 05:18:10;;;;;;;1.60;0.70;;;;;;;;;;5139180;27;20413;-86
2024/01/03 05:21:05;;;;;;;0.70;0.60;;;;;;;;;;5141058;27;20050;-87
2024/01/03 05:23:51;;;;;;;0.88;0.70;;;;;;;;;;5139481;27;20031;-87
2024/01/03 05:26:17;;;;;;;0.65;0.60;;;;;;;;;;5137758;27;20023;-87
2024/01/03 05:28:52;;;;;;;5.40;2.90;;;;;;;;;;5139173;27;20034;-87
2024/01/03 05:31:38;;;;;;;1.27;0.85;;;;;;;;;;5137269;27;20031;-87
2024/01/03 05:34:08;;;;;;;1.25;0.80;;;;;;;;;;5138663;27;20023;-86
2024/01/03 05:36:54;;;;;;;1.85;1.10;;;;;;;;;;5142174;27;20474;-86
2024/01/03 05:39:23;;;;;;;1.38;0.88;;;;;;;;;;5136171;27;20042;-86
2024/01/03 05:41:55;;;;;;;4.75;1.80;;;;;;;;;;5139769;27;20049;-87
2024/01/03 05:44:59;;;;;;;1.30;0.70;;;;;;;;;;5145793;27;20072;-87
2024/01/03 05:47:27;;;;;;;2.20;0.80;;;;;;;;;;5147452;27;20054;-87
2024/01/03 05:50:02;;;;;;;0.88;0.70;;;;;;;;;;5142809;27;20035;-87
2024/01/03 05:52:28;;;;;;;0.90;0.70;;;;;;;;;;5137437;27;20022;-87
2024/01/03 05:55:06;;;;;;;;;;;;;;;;;;;;;
2024/01/03 06:00:51;;;;;;;1.20;0.90;;;;;;;;;;5139567;27;20030;-87
2024/01/03 06:03:35;;;;;;;1.20;0.60;;;;;;;;;;5121430;27;20076;-86
2024/01/03 06:06:33;;;;;;;1.15;0.70;;;;;;;;;;5139922;27;20035;-86
2024/01/03 06:09:08;;;;;;;4.32;2.83;;;;;;;;;;5130340;27;20046;-87
2024/01/03 06:14:57;;;;;;;3.47;1.20;;;;;;;;;;5137413;27;20451;-87
2024/01/03 06:17:37;;;;;;;1.35;1.00;;;;;;;;;;5138186;27;20090;-87
2024/01/03 06:20:13;;;;;;;1.02;0.75;;;;;;;;;;5134530;27;20102;-87
2024/01/03 06:22:56;;;;;;;2.03;0.80;;;;;;;;;;5130242;27;20049;-86
2024/01/03 06:25:30;;;;;;;2.05;1.17;;;;;;;;;;5136732;27;20053;-86
2024/01/03 06:28:30;;;;;;;3.20;1.10;;;;;;;;;;5132681;27;20039;-87
2024/01/03 06:31:11;;;;;;;2.28;1.00;;;;;;;;;;5133646;27;20057;-87
2024/01/03 06:33:37;;;;;;;1.67;1.10;;;;;;;;;;5138716;27;20030;-87
2024/01/03 06:36:02;;;;;;;1.85;1.15;;;;;;;;;;5135830;27;20039;-85
2024/01/03 06:38:28;;;;;;;1.88;1.17;;;;;;;;;;5117016;27;20397;-86
2024/01/03 06:40:53;;;;;;;1.98;1.23;;;;;;;;;;5134326;27;20500;-86
2024/01/03 06:43:19;;;;;;;1.25;0.80;;;;;;;;;;5136447;27;20039;-86
2024/01/03 06:45:45;;;;;;;2.00;1.10;;;;;;;;;;5136107;27;20039;-84
2024/01/03 06:48:11;;;;;;;1.52;1.00;;;;;;;;;;5137476;27;20035;-86
2024/01/03 06:50:36;;;;;;;2.25;1.13;;;;;;;;;;5135951;27;20027;-85
2024/01/03 06:53:02;;;;;;;1.42;1.00;;;;;;;;;;5132298;27;20438;-86
2024/01/03 06:55:27;;;;;;;1.52;1.00;;;;;;;;;;5128270;27;20412;-84
2024/01/03 06:57:53;;;;;;;2.08;1.00;;;;;;;;;;5133554;27;20480;-86
2024/01/03 07:00:19;;;;;;;1.75;0.95;;;;;;;;;;5134373;27;20027;-85
2024/01/03 07:02:44;;;;;;;1.60;1.00;;;;;;;;;;5132630;27;20035;-85
2024/01/03 07:05:10;;;;;;;1.63;1.00;;;;;;;;;;5129330;27;20052;-85
2024/01/03 07:07:35;;;;;;;3.00;1.17;;;;;;;;;;5130095;27;20078;-84
2024/01/03 07:10:01;;;;;;;1.90;0.93;;;;;;;;;;5129285;27;20914;-85
2024/01/03 07:12:26;;;;;;;2.20;1.15;;;;;;;;;;5133612;27;20149;-85
2024/01/03 07:14:52;;;;;;;3.80;2.00;;;;;;;;;;5130818;27;20037;-85
2024/01/03 07:17:17;;;;;;;2.50;1.58;;;;;;;;;;5131468;27;20504;-85
2024/01/03 07:19:43;;;;;;;3.92;1.30;;;;;;;;;;5138528;27;20027;-86
2024/01/03 07:22:08;;;;;;;2.90;1.30;;;;;;;;;;5130679;27;20031;-86
2024/01/03 07:24:36;;;;;;;2.63;1.40;;;;;;;;;;5129151;27;20111;-85
2024/01/03 07:27:03;;;;;;;2.90;1.23;;;;;;;;;;5128070;27;20046;-85
2024/01/03 07:29:28;;;;;;;2.17;1.23;;;;;;;;;;5127431;27;20451;-85
2024/01/03 07:31:54;;;;;;;2.88;1.60;;;;;;;;;;5129396;27;20065;-85
2024/01/03 07:34:19;;;;;;;2.42;1.52;;;;;;;;;;5129573;27;20110;-86
2024/01/03 07:36:45;;;;;;;2.20;1.40;;;;;;;;;;5129548;27;20027;-85
2024/01/03 07:39:10;;;;;;;2.90;1.20;;;;;;;;;;5132006;27;20498;-86
2024/01/03 07:41:36;;;;;;;1.98;0.98;;;;;;;;;;5129732;27;20027;-85
2024/01/03 07:44:02;;;;;;;2.30;1.23;;;;;;;;;;5130542;27;20805;-87
2024/01/03 07:46:28;;;;;;;4.43;1.75;;;;;;;;;;5123102;27;20039;-86
2024/01/03 07:48:53;;;;;;;3.97;1.25;;;;;;;;;;5126080;27;20072;-85
2024/01/03 07:51:19;;;;;;;3.90;2.30;;;;;;;;;;5126768;27;20119;-86
2024/01/03 07:53:44;;;;;;;5.40;2.50;;;;;;;;;;5129545;27;20028;-84
2024/01/03 07:56:10;;;;;;;10.13;5.68;;;;;;;;;;5131290;27;20035;-83
2024/01/03 07:58:36;;;;;;;7.45;4.10;;;;;;;;;;5130689;27;20035;-84
2024/01/03 08:01:01;;;;;;;5.82;3.40;;;;;;;;;;5128107;27;20057;-85
2024/01/03 08:03:27;;;;;;;5.22;3.00;;;;;;;;;;5126814;27;20077;-85
2024/01/03 08:05:53;;;;;;;5.35;2.53;;;;;;;;;;5131415;28;20031;-84
2024/01/03 08:08:18;;;;;;;5.93;3.08;;;;;;;;;;5124766;27;20081;-84
2024/01/03 08:10:44;;;;;;;7.70;3.28;;;;;;;;;;5125658;28;21281;-84
2024/01/03 08:13:11;;;;;;;5.97;3.05;;;;;;;;;;5117463;28;20015;-85
2024/01/03 08:15:36;;;;;;;4.40;2.35;;;;;;;;;;5126811;28;20031;-84
2024/01/03 08:18:02;;;;;;;3.90;2.35;;;;;;;;;;5130987;28;20046;-83
2024/01/03 08:20:27;;;;;;;2.95;1.42;;;;;;;;;;5128298;28;20038;-84
2024/01/03 08:22:53;;;;;;;3.80;1.42;;;;;;;;;;5130772;28;20031;-85
2024/01/03 08:25:18;;;;;;;3.35;1.63;;;;;;;;;;5126938;28;20027;-85
2024/01/03 08:27:44;;;;;;;2.50;1.40;;;;;;;;;;5117697;28;20031;-85
2024/01/03 08:30:10;;;;;;;2.92;1.80;;;;;;;;;;5128055;27;20022;-84
2024/01/03 08:32:40;;;;;;;3.42;2.10;;;;;;;;;;5129545;28;20031;-87
2024/01/03 08:35:07;;;;;;;2.78;1.80;;;;;;;;;;5130467;28;20034;-84
2024/01/03 08:37:32;;;;;;;4.32;1.85;;;;;;;;;;5128131;28;20309;-84
2024/01/03 08:39:59;;;;;;;4.00;2.20;;;;;;;;;;5113156;28;20095;-86
2024/01/03 08:42:24;;;;;;;2.47;1.77;;;;;;;;;;5123356;27;20054;-85
2024/01/03 08:44:51;;;;;;;3.03;1.42;;;;;;;;;;5126498;28;20412;-84
2024/01/03 08:47:17;;;;;;;4.55;2.03;;;;;;;;;;5123373;27;20496;-84
2024/01/03 08:49:43;;;;;;;3.10;1.90;;;;;;;;;;5127965;27;20052;-85
2024/01/03 08:52:09;;;;;;;2.67;1.50;;;;;;;;;;5133034;27;20503;-84
2024/01/03 08:54:35;;;;;;;2.15;1.30;;;;;;;;;;5130747;27;20027;-86
2024/01/03 08:57:00;;;;;;;1.80;1.20;;;;;;;;;;5130573;27;20027;-85
2024/01/03 08:59:26;;;;;;;2.00;1.05;;;;;;;;;;5135875;27;20028;-86
2024/01/03 09:01:57;;;;;;;3.58;1.08;;;;;;;;;;5118881;27;20395;-85
2024/01/03 09:04:23;;;;;;;2.75;1.45;;;;;;;;;;5131523;27;20122;-86
2024/01/03 09:06:51;;;;;;;2.50;1.50;;;;;;;;;;5138884;27;20514;-86
2024/01/03 09:09:16;;;;;;;2.58;1.60;;;;;;;;;;5136630;27;20064;-86
2024/01/03 09:11:42;;;;;;;2.15;1.30;;;;;;;;;;5135310;27;20470;-86
2024/01/03 09:14:07;;;;;;;1.42;1.00;;;;;;;;;;5135643;27;20037;-85
2024/01/03 09:16:33;;;;;;;1.20;0.90;;;;;;;;;;5130442;27;20114;-86
2024/01/03 09:18:59;;;;;;;1.55;0.93;;;;;;;;;;5132671;27;20133;-85
2024/01/03 09:21:26;;;;;;;1.40;0.90;;;;;;;;;;5133781;27;20059;-85
2024/01/03 09:23:52;;;;;;;1.20;0.88;;;;;;;;;;5132396;27;20027;-85
2024/01/03 09:26:22;;;;;;;3.72;0.80;;;;;;;;;;5131610;27;20376;-85
2024/01/03 09:28:49;;;;;;;0.75;0.75;;;;;;;;;;5130995;27;20504;-85
2024/01/03 09:31:15;;;;;;;1.48;1.00;;;;;;;;;;5131171;27;20023;-85
2024/01/03 09:33:41;;;;;;;1.77;1.38;;;;;;;;;;5130450;27;20020;-85
2024/01/03 09:36:15;;;;;;;1.42;0.90;;;;;;;;;;5131576;27;20031;-86
2024/01/03 09:38:40;;;;;;;2.13;1.23;;;;;;;;;;5132020;27;20055;-83
2024/01/03 09:41:12;;;;;;;2.25;1.10;;;;;;;;;;5132371;27;20053;-87
2024/01/03 09:43:42;;;;;;;1.00;0.80;;;;;;;;;;5132468;27;20058;-86
2024/01/03 09:46:11;;;;;;;0.95;0.90;;;;;;;;;;5137414;27;20050;-88
2024/01/03 09:48:48;;;;;;;3.42;1.10;;;;;;;;;;5141132;27;20050;-87
2024/01/03 09:51:15;;;;;;;3.78;1.60;;;;;;;;;;5131188;27;20035;-87
2024/01/03 09:53:40;;;;;;;2.22;1.50;;;;;;;;;;5138483;27;20027;-87
2024/01/03 09:56:06;;;;;;;2.17;1.40;;;;;;;;;;5138310;27;20031;-86
2024/01/03 09:58:35;;;;;;;2.35;1.40;;;;;;;;;;5136164;27;20035;-87
2024/01/03 10:01:04;;;;;;;2.47;1.23;;;;;;;;;;5141711;27;20033;-86
2024/01/03 10:03:29;;;;;;;2.40;1.15;;;;;;;;;;5138818;27;20027;-86
2024/01/03 10:06:13;;;;;;;1.70;1.10;;;;;;;;;;5137919;27;20034;-86
2024/01/03 10:08:39;;;;;;;2.70;1.45;;;;;;;;;;5139013;27;20042;-86
2024/01/03 10:11:21;;;;;;;1.63;1.10;;;;;;;;;;5138274;27;20055;-86
2024/01/03 10:13:50;;;;;;;1.25;0.90;;;;;;;;;;5137240;27;20041;-86
2024/01/03 10:16:25;;;;;;;1.35;0.90;;;;;;;;;;5137077;27;20095;-86
2024/01/03 10:19:11;;;;;;;2.25;0.80;;;;;;;;;;5138584;27;20031;-86
2024/01/03 10:21:40;;;;;;;1.20;0.90;;;;;;;;;;5138253;27;20023;-86
2024/01/03 10:24:07;;;;;;;1.52;0.80;;;;;;;;;;5136345;27;20031;-86
2024/01/03 10:26:33;;;;;;;1.13;0.70;;;;;;;;;;5137882;27;20060;-86
2024/01/03 10:29:14;;;;;;;1.23;0.73;;;;;;;;;;5139855;27;20042;-86
2024/01/03 10:31:40;;;;;;;2.30;0.80;;;;;;;;;;5135564;27;20030;-86
2024/01/03 10:34:12;;;;;;;1.40;0.77;;;;;;;;;;5134215;27;20023;-85
2024/01/03 10:36:39;;;;;;;1.50;0.80;;;;;;;;;;5136166;27;20031;-86
2024/01/03 10:39:06;;;;;;;2.25;0.80;;;;;;;;;;5139264;27;20080;-86
2024/01/03 10:41:32;;;;;;;1.70;0.70;;;;;;;;;;5135435;27;20118;-86
2024/01/03 10:44:00;;;;;;;1.60;0.90;;;;;;;;;;5136224;27;20031;-86
2024/01/03 10:46:26;;;;;;;1.20;0.80;;;;;;;;;;5134774;27;20031;-86
2024/01/03 10:48:52;;;;;;;1.00;0.70;;;;;;;;;;5137902;27;20472;-86
2024/01/03 10:51:22;;;;;;;1.58;0.73;;;;;;;;;;5133431;27;20045;-86
2024/01/03 10:53:52;;;;;;;1.27;0.60;;;;;;;;;;5136715;27;20075;-86
2024/01/03 10:56:18;;;;;;;1.00;0.50;;;;;;;;;;5135194;27;20039;-86
2024/01/03 10:58:44;;;;;;;0.77;0.68;;;;;;;;;;5138205;27;20070;-86
2024/01/03 11:01:19;;;;;;;1.00;0.80;;;;;;;;;;5140918;27;20377;-86
2024/01/03 11:03:50;;;;;;;1.40;1.00;;;;;;;;;;5140883;27;20019;-86
2024/01/03 11:06:26;;;;;;;0.63;0.60;;;;;;;;;;5139558;27;20027;-86
2024/01/03 11:08:55;;;;;;;1.25;0.68;;;;;;;;;;5144222;27;20038;-84
2024/01/03 11:11:39;;;;;;;1.10;0.60;;;;;;;;;;5138523;27;20117;-86
2024/01/03 11:14:17;;;;;;;1.08;0.73;;;;;;;;;;5141193;27;20038;-85
2024/01/03 11:16:43;;;;;;;0.82;0.60;;;;;;;;;;5126624;27;20035;-85
2024/01/03 11:19:08;;;;;;;0.82;0.60;;;;;;;;;;5140181;27;20031;-86
2024/01/03 11:21:37;;;;;;;0.70;0.55;;;;;;;;;;5137511;27;20058;-84
2024/01/03 11:24:41;;;;;;;1.58;0.50;;;;;;;;;;5134205;27;20035;-86
2024/01/03 11:27:07;;;;;;;3.63;1.05;;;;;;;;;;5131459;27;20035;-85
2024/01/03 11:29:35;;;;;;;1.42;0.70;;;;;;;;;;5144001;27;20031;-85
2024/01/03 11:32:03;;;;;;;0.98;0.80;;;;;;;;;;5143529;27;20069;-86
2024/01/03 11:34:44;;;;;;;2.78;0.63;;;;;;;;;;5140510;27;20065;-86
2024/01/03 11:37:16;;;;;;;0.65;0.52;;;;;;;;;;5140735;27;20063;-86
2024/01/03 11:39:43;;;;;;;0.73;0.52;;;;;;;;;;5142961;27;20063;-86
2024/01/03 11:42:24;;;;;;;2.75;0.50;;;;;;;;;;5138485;27;20027;-84
2024/01/03 11:45:01;;;;;;;0.73;0.60;;;;;;;;;;5128554;27;20033;-85
2024/01/03 11:47:27;;;;;;;1.60;0.80;;;;;;;;;;5133166;27;20080;-85
2024/01/03 11:49:56;;;;;;;1.38;0.98;;;;;;;;;;5130235;27;20027;-85
2024/01/03 11:52:22;;;;;;;1.10;0.73;;;;;;;;;;5136617;27;20145;-87
2024/01/03 11:54:52;;;;;;;2.83;1.25;;;;;;;;;;5137748;27;20031;-86
2024/01/03 11:57:21;;;;;;;2.17;0.98;;;;;;;;;;5137581;27;20102;-87
2024/01/03 11:59:59;;;;;;;1.73;0.90;;;;;;;;;;5141459;27;20039;-86
2024/01/03 12:02:26;;;;;;;1.00;0.75;;;;;;;;;;5134750;27;20027;-85
2024/01/03 12:04:59;;;;;;;0.73;0.47;;;;;;;;;;5134324;28;20091;-86
2024/01/03 12:07:25;;;;;;;0.90;0.70;;;;;;;;;;5126951;28;20042;-86
2024/01/03 12:09:50;;;;;;;1.58;0.88;;;;;;;;;;5134534;28;20035;-86
2024/01/03 12:12:16;;;;;;;1.27;0.82;;;;;;;;;;5138097;28;20015;-87
2024/01/03 12:14:50;;;;;;;0.73;0.60;;;;;;;;;;5136865;28;20543;-83
2024/01/03 12:17:23;;;;;;;1.08;0.60;;;;;;;;;;5135163;27;20028;-85
2024/01/03 12:19:48;;;;;;;0.82;0.60;;;;;;;;;;5131909;27;20113;-85
2024/01/03 12:22:22;;;;;;;1.88;0.68;;;;;;;;;;5132688;27;20035;-85
2024/01/03 12:24:47;;;;;;;0.70;0.50;;;;;;;;;;5137147;27;20058;-86
2024/01/03 12:27:20;;;;;;;0.57;0.52;;;;;;;;;;5141301;27;20030;-86
2024/01/03 12:29:45;;;;;;;0.50;0.50;;;;;;;;;;5140993;27;20041;-85
2024/01/03 12:32:14;;;;;;;0.40;0.40;;;;;;;;;;5142969;27;20509;-87
2024/01/03 12:34:39;;;;;;;1.13;0.60;;;;;;;;;;5124396;27;20056;-87
2024/01/03 12:37:05;;;;;;;0.88;0.57;;;;;;;;;;5139230;27;20026;-86
2024/01/03 12:39:34;;;;;;;1.20;0.55;;;;;;;;;;5140765;27;20137;-85
2024/01/03 12:42:11;;;;;;;1.38;0.60;;;;;;;;;;5137176;27;20468;-87
2024/01/03 12:44:38;;;;;;;0.75;0.55;;;;;;;;;;5141513;27;20036;-85
2024/01/03 12:47:08;;;;;;;2.30;0.50;;;;;;;;;;5142217;27;20038;-86
2024/01/03 12:49:34;;;;;;;1.20;0.73;;;;;;;;;;5140763;27;20488;-87
2024/01/03 12:52:01;;;;;;;0.80;0.60;;;;;;;;;;5129120;27;20043;-87
2024/01/03 12:54:28;;;;;;;1.17;0.50;;;;;;;;;;5136414;27;20055;-86
2024/01/03 12:56:54;;;;;;;1.10;0.60;;;;;;;;;;5138638;27;20034;-87
2024/01/03 12:59:19;;;;;;;0.57;0.47;;;;;;;;;;5139803;27;20408;-87
2024/01/03 13:01:45;;;;;;;1.13;0.65;;;;;;;;;;5135323;27;20035;-87
2024/01/03 13:04:11;;;;;;;0.70;0.60;;;;;;;;;;5138681;27;20035;-87
2024/01/03 13:06:36;;;;;;;2.55;0.60;;;;;;;;;;5137693;27;20581;-86
2024/01/03 13:09:04;;;;;;;0.75;0.63;;;;;;;;;;5138380;27;20110;-87
2024/01/03 13:11:30;;;;;;;1.10;0.57;;;;;;;;;;5138409;27;20049;-87
2024/01/03 13:13:57;;;;;;;0.60;0.50;;;;;;;;;;5141334;27;20052;-85
2024/01/03 13:16:23;;;;;;;0.93;0.40;;;;;;;;;;5136939;27;20036;-87
2024/01/03 13:18:49;;;;;;;0.40;0.38;;;;;;;;;;5141866;27;20076;-87
2024/01/03 13:21:15;;;;;;;1.05;0.70;;;;;;;;;;5139875;27;20491;-87
2024/01/03 13:23:42;;;;;;;0.77;0.60;;;;;;;;;;5141694;27;20369;-87
2024/01/03 13:26:07;;;;;;;0.70;0.55;;;;;;;;;;5135581;27;20122;-87
2024/01/03 13:28:33;;;;;;;0.88;0.43;;;;;;;;;;5133732;27;20074;-87
2024/01/03 13:30:59;;;;;;;1.10;0.40;;;;;;;;;;5133761;27;20526;-86
2024/01/03 13:33:24;;;;;;;0.75;0.35;;;;;;;;;;5135394;27;20101;-84
2024/01/03 13:35:50;;;;;;;1.65;0.55;;;;;;;;;;5136853;27;20011;-85
2024/01/03 13:38:15;;;;;;;0.98;0.47;;;;;;;;;;5135919;27;20042;-87
2024/01/03 13:40:43;;;;;;;0.68;0.30;;;;;;;;;;5133136;27;20035;-85
2024/01/03 13:43:08;;;;;;;0.60;0.50;;;;;;;;;;5145408;27;20052;-87
2024/01/03 13:45:35;;;;;;;0.65;0.40;;;;;;;;;;5138799;27;20416;-86
2024/01/03 13:48:00;;;;;;;1.70;0.50;;;;;;;;;;5136596;27;20038;-88
2024/01/03 13:50:28;;;;;;;0.50;0.32;;;;;;;;;;5136326;27;20035;-87
2024/01/03 13:52:53;;;;;;;0.47;0.30;;;;;;;;;;5140618;27;20031;-85
2024/01/03 13:55:19;;;;;;;0.50;0.30;;;;;;;;;;5138804;27;20030;-87
2024/01/03 13:57:44;;;;;;;0.73;0.30;;;;;;;;;;5141266;27;20086;-87
2024/01/03 14:00:10;;;;;;;1.15;0.60;;;;;;;;;;5139361;27;20042;-87
2024/01/03 14:02:36;;;;;;;1.13;0.70;;;;;;;;;;5136971;27;20043;-85
2024/01/03 14:05:04;;;;;;;1.38;0.90;;;;;;;;;;5139666;27;20027;-87
2024/01/03 14:07:30;;;;;;;1.75;0.90;;;;;;;;;;5136899;27;20023;-86
2024/01/03 14:09:55;;;;;;;1.25;0.93;;;;;;;;;;5138752;27;20039;-86
2024/01/03 14:12:21;;;;;;;1.50;0.95;;;;;;;;;;5136118;27;20031;-88
2024/01/03 14:14:47;;;;;;;1.98;1.15;;;;;;;;;;5135978;27;20027;-85
2024/01/03 14:17:12;;;;;;;1.60;0.93;;;;;;;;;;5135318;27;20027;-86
2024/01/03 14:19:39;;;;;;;2.17;1.40;;;;;;;;;;5132971;27;20412;-85
2024/01/03 14:22:05;;;;;;;2.33;1.30;;;;;;;;;;5136489;27;20447;-85
2024/01/03 14:24:30;;;;;;;4.15;1.00;;;;;;;;;;5142998;27;20030;-87
2024/01/03 14:26:56;;;;;;;1.58;1.08;;;;;;;;;;5136661;27;20027;-85
2024/01/03 14:29:22;;;;;;;1.98;1.20;;;;;;;;;;5133992;27;20039;-85
2024/01/03 14:31:47;;;;;;;1.30;0.90;;;;;;;;;;5137446;27;20222;-85
2024/01/03 14:34:14;;;;;;;2.17;0.90;;;;;;;;;;5123172;27;20027;-87
2024/01/03 14:36:40;;;;;;;1.98;1.20;;;;;;;;;;5137697;27;20039;-88
2024/01/03 14:39:09;;;;;;;2.92;1.20;;;;;;;;;;5139064;27;20035;-85
2024/01/03 14:41:37;;;;;;;2.60;1.20;;;;;;;;;;5138024;27;20041;-87
2024/01/03 14:44:05;;;;;;;1.60;1.10;;;;;;;;;;5137086;27;20053;-86
2024/01/03 14:46:33;;;;;;;2.60;1.27;;;;;;;;;;5129441;27;20065;-87
2024/01/03 14:49:00;;;;;;;1.85;1.10;;;;;;;;;;5113900;27;20030;-87
2024/01/03 14:51:26;;;;;;;1.67;1.20;;;;;;;;;;5125227;27;20548;-87
2024/01/03 14:53:52;;;;;;;2.50;1.25;;;;;;;;;;5133673;27;20027;-88
2024/01/03 14:56:18;;;;;;;3.10;1.23;;;;;;;;;;5127866;27;20092;-87
2024/01/03 14:58:44;;;;;;;1.80;1.25;;;;;;;;;;5135059;27;20053;-87
2024/01/03 15:01:11;;;;;;;2.95;1.20;;;;;;;;;;5137293;27;20031;-86